Time;durP1;ratioP1;P1;durP2;ratioP2;P2;SDS_P1;SDS_P2;PMS_P1;PMS_P2;Temp;Humidity;BMP_temperature;BMP_pressure;BME280_temperature;BME280_humidity;BME280_pressure;Samples;Min_cycle;Max_cycle;Signal;HPM_P1;HPM_P2
2022/05/30 00:01:46;;;;;;;15.57;9.67;;;14.20;99.90;;;;;;5063068;28;20190;-58
2022/05/30 00:04:13;;;;;;;14.77;9.13;;;14.20;99.90;;;;;;5063800;28;20281;-58
2022/05/30 00:06:38;;;;;;;17.73;11.63;;;14.20;99.90;;;;;;5062999;28;20193;-57
2022/05/30 00:09:04;;;;;;;21.80;12.67;;;14.20;99.90;;;;;;5063787;28;20218;-57
2022/05/30 00:11:30;;;;;;;21.30;12.13;;;14.10;99.90;;;;;;5062995;28;20243;-61
2022/05/30 00:13:57;;;;;;;18.20;10.70;;;14.10;99.90;;;;;;5063402;28;20189;-58
2022/05/30 00:16:23;;;;;;;20.77;11.00;;;14.10;99.90;;;;;;5063523;28;20235;-57
2022/05/30 00:18:50;;;;;;;19.27;10.57;;;14.10;99.90;;;;;;5062990;28;20194;-58
2022/05/30 00:21:20;;;;;;;18.10;10.87;;;14.00;99.90;;;;;;5062447;28;20204;-59
2022/05/30 00:23:46;;;;;;;16.90;10.80;;;14.00;99.90;;;;;;5061762;28;20238;-58
2022/05/30 00:26:12;;;;;;;15.87;9.13;;;14.00;99.90;;;;;;5063452;28;20204;-58
2022/05/30 00:28:38;;;;;;;20.90;11.37;;;14.00;99.90;;;;;;5063123;28;20297;-59
2022/05/30 00:31:07;;;;;;;22.00;13.33;;;14.00;99.90;;;;;;5063105;28;20633;-58
2022/05/30 00:33:33;;;;;;;19.90;14.23;;;13.90;99.90;;;;;;5062406;28;20204;-58
2022/05/30 00:35:59;;;;;;;22.17;14.80;;;13.90;99.90;;;;;;5062991;28;20190;-58
2022/05/30 00:38:25;;;;;;;23.83;13.30;;;13.90;99.90;;;;;;5063024;28;20190;-58
2022/05/30 00:40:50;;;;;;;19.63;13.23;;;14.00;99.90;;;;;;5062685;28;20250;-58
2022/05/30 00:43:33;;;;;;;17.90;12.17;;;13.90;99.90;;;;;;5063364;28;20200;-57
2022/05/30 00:46:01;;;;;;;18.77;12.20;;;13.90;99.90;;;;;;5062968;28;20185;-59
2022/05/30 00:48:37;;;;;;;14.53;11.10;;;13.90;99.90;;;;;;5062792;28;20193;-58
2022/05/30 00:51:10;;;;;;;13.50;9.70;;;13.90;99.90;;;;;;5062450;28;20182;-58
2022/05/30 00:53:38;;;;;;;13.30;9.40;;;13.90;99.90;;;;;;5061892;28;20257;-58
2022/05/30 00:56:05;;;;;;;14.67;9.87;;;13.90;99.90;;;;;;5061661;28;20311;-58
2022/05/30 00:58:35;;;;;;;16.13;9.83;;;13.90;99.90;;;;;;5062270;28;20288;-58
2022/05/30 01:01:02;;;;;;;15.17;10.07;;;13.80;99.90;;;;;;5062210;28;20293;-58
2022/05/30 01:08:57;;;;;;;17.07;11.53;;;13.80;99.90;;;;;;5061914;28;20716;-58
2022/05/30 01:11:23;;;;;;;16.00;12.10;;;13.80;99.90;;;;;;5062683;28;20596;-58
2022/05/30 01:13:49;;;;;;;17.37;12.07;;;13.80;99.90;;;;;;5062114;28;20190;-58
2022/05/30 01:16:15;;;;;;;18.40;12.87;;;13.70;99.90;;;;;;5061788;28;20221;-58
2022/05/30 01:18:55;;;;;;;23.13;14.73;;;13.80;99.90;;;;;;5062400;28;20600;-58
2022/05/30 01:21:51;;;;;;;19.23;13.37;;;13.70;99.90;;;;;;5061506;28;20264;-59
2022/05/30 01:24:45;;;;;;;21.87;13.03;;;13.80;99.90;;;;;;5060724;28;20229;-59
2022/05/30 01:27:31;;;;;;;22.67;14.87;;;13.80;99.90;;;;;;5062028;28;20186;-58
2022/05/30 01:30:04;;;;;;;19.67;13.53;;;13.80;99.90;;;;;;5061686;28;20222;-59
2022/05/30 01:32:29;;;;;;;22.30;13.83;;;13.80;99.90;;;;;;5061693;28;20231;-59
2022/05/30 01:34:55;;;;;;;20.43;14.27;;;13.80;99.90;;;;;;5061187;28;20599;-58
2022/05/30 01:37:21;;;;;;;19.17;13.43;;;13.80;99.90;;;;;;5061517;28;20190;-58
2022/05/30 01:39:47;;;;;;;19.33;13.27;;;13.80;99.90;;;;;;5062101;28;20234;-58
2022/05/30 01:42:13;;;;;;;20.57;12.93;;;13.80;99.90;;;;;;5061492;28;20221;-58
2022/05/30 01:44:39;;;;;;;17.93;11.63;;;13.80;99.90;;;;;;5061355;28;20281;-59
2022/05/30 01:47:05;;;;;;;17.87;10.80;;;13.80;99.90;;;;;;5061404;28;20698;-58
2022/05/30 01:49:30;;;;;;;15.23;10.67;;;13.70;99.90;;;;;;5061671;28;20229;-58
2022/05/30 01:51:57;;;;;;;13.83;9.80;;;13.70;99.90;;;;;;5061803;28;20269;-58
2022/05/30 01:54:23;;;;;;;15.10;10.07;;;13.70;99.90;;;;;;5061250;28;20197;-58
2022/05/30 01:56:48;;;;;;;12.50;9.80;;;13.70;99.90;;;;;;5061669;28;20194;-58
2022/05/30 01:59:15;;;;;;;14.73;9.50;;;13.70;99.90;;;;;;5061178;28;20194;-58
2022/05/30 02:01:42;;;;;;;15.60;10.30;;;13.70;99.90;;;;;;5061102;28;20197;-59
2022/05/30 02:04:08;;;;;;;14.00;10.73;;;13.80;99.90;;;;;;5061031;28;20193;-57
2022/05/30 02:06:35;;;;;;;10.93;9.00;;;13.80;99.90;;;;;;5061108;28;20191;-60
2022/05/30 02:09:02;;;;;;;13.70;9.80;;;13.80;99.90;;;;;;5060007;28;20302;-59
2022/05/30 02:11:28;;;;;;;15.30;10.67;;;13.80;99.90;;;;;;5061118;28;20194;-58
2022/05/30 02:13:54;;;;;;;15.37;10.43;;;13.80;99.90;;;;;;5061002;28;20381;-58
2022/05/30 02:19:05;;;;;;;14.50;10.27;;;13.80;99.90;;;;;;5060531;28;20189;-58
2022/05/30 02:21:34;;;;;;;13.93;9.20;;;13.80;99.90;;;;;;5061471;28;20660;-58
2022/05/30 02:24:01;;;;;;;14.77;10.43;;;13.80;99.90;;;;;;5060377;28;20262;-59
2022/05/30 02:26:26;;;;;;;14.93;10.47;;;13.80;99.90;;;;;;5060885;28;20657;-58
2022/05/30 02:28:52;;;;;;;14.17;10.17;;;13.80;99.90;;;;;;5061107;28;20213;-58
2022/05/30 02:31:18;;;;;;;16.40;11.30;;;13.80;99.90;;;;;;5061386;28;20198;-59
2022/05/30 02:36:40;;;;;;;21.27;14.17;;;13.80;99.90;;;;;;5061407;28;20377;-57
2022/05/30 02:39:20;;;;;;;23.20;14.97;;;13.90;99.90;;;;;;5060193;28;20196;-59
2022/05/30 02:41:46;;;;;;;23.10;15.10;;;13.90;99.90;;;;;;5060406;28;20188;-56
2022/05/30 02:44:14;;;;;;;22.83;14.17;;;13.90;99.90;;;;;;5060861;28;20284;-56
2022/05/30 02:46:40;;;;;;;23.23;15.57;;;14.00;99.90;;;;;;5059923;28;20195;-58
2022/05/30 02:49:06;;;;;;;24.00;15.30;;;14.00;99.90;;;;;;5060512;28;20239;-57
2022/05/30 02:51:32;;;;;;;25.27;15.57;;;14.00;99.90;;;;;;5061091;28;20266;-57
2022/05/30 02:53:58;;;;;;;25.93;16.30;;;14.00;99.90;;;;;;5060462;28;20196;-57
2022/05/30 02:56:24;;;;;;;27.17;17.03;;;14.00;99.90;;;;;;5060759;28;20506;-57
2022/05/30 02:58:50;;;;;;;22.53;15.57;;;14.00;99.90;;;;;;5060791;28;20494;-57
2022/05/30 03:01:16;;;;;;;27.03;17.27;;;14.00;99.90;;;;;;5059623;28;20196;-58
2022/05/30 03:03:43;;;;;;;24.17;16.40;;;14.10;99.90;;;;;;5060517;28;20645;-57
2022/05/30 03:06:09;;;;;;;26.40;16.60;;;14.10;99.90;;;;;;5060639;28;20236;-55
2022/05/30 03:08:34;;;;;;;25.20;16.57;;;14.10;99.90;;;;;;5060044;28;20519;-55
2022/05/30 03:11:00;;;;;;;26.90;17.43;;;14.10;99.90;;;;;;5060372;28;20214;-56
2022/05/30 03:13:26;;;;;;;24.47;16.77;;;14.10;99.90;;;;;;5062283;28;20264;-57
2022/05/30 03:15:52;;;;;;;31.00;18.27;;;14.10;99.90;;;;;;5063772;28;20194;-55
2022/05/30 03:18:17;;;;;;;27.60;17.20;;;14.10;99.90;;;;;;5064848;28;20527;-58
2022/05/30 03:20:43;;;;;;;26.33;17.87;;;14.20;99.90;;;;;;5063927;28;20201;-57
2022/05/30 03:23:09;;;;;;;22.60;16.63;;;14.20;99.90;;;;;;5063933;28;20657;-56
2022/05/30 03:25:35;;;;;;;25.93;16.70;;;14.20;99.90;;;;;;5064067;28;20204;-57
2022/05/30 03:28:01;;;;;;;25.70;16.20;;;14.20;99.90;;;;;;5063224;28;20541;-57
2022/05/30 03:30:27;;;;;;;25.57;14.83;;;14.20;99.90;;;;;;5063951;28;20216;-57
2022/05/30 03:32:53;;;;;;;23.57;15.40;;;14.30;99.90;;;;;;5064187;28;20190;-58
2022/05/30 03:35:19;;;;;;;24.37;15.90;;;14.30;99.90;;;;;;5063935;28;20304;-58
2022/05/30 03:37:45;;;;;;;25.03;15.37;;;14.30;99.90;;;;;;5063107;28;20187;-58
2022/05/30 03:40:13;;;;;;;23.53;15.90;;;14.30;99.90;;;;;;5064198;28;20198;-56
2022/05/30 03:42:39;;;;;;;27.90;17.13;;;14.30;99.90;;;;;;5063317;28;20218;-57
2022/05/30 03:45:07;;;;;;;26.70;16.47;;;14.30;99.90;;;;;;5064018;28;20587;-57
2022/05/30 03:47:38;;;;;;;25.00;16.83;;;14.40;99.90;;;;;;5063573;28;20288;-55
2022/05/30 03:50:05;;;;;;;24.03;16.10;;;14.40;99.90;;;;;;5063618;28;20230;-57
2022/05/30 03:52:30;;;;;;;26.17;15.70;;;14.40;99.90;;;;;;5062176;28;20234;-56
2022/05/30 03:54:56;;;;;;;24.67;15.40;;;14.40;99.90;;;;;;5063340;28;20224;-57
2022/05/30 03:57:22;;;;;;;21.83;15.00;;;14.50;99.90;;;;;;5063346;28;20197;-58
2022/05/30 03:59:48;;;;;;;18.90;14.10;;;14.50;99.90;;;;;;5063181;28;20190;-55
2022/05/30 04:02:14;;;;;;;21.00;14.57;;;14.50;99.90;;;;;;5063313;28;20186;-58
2022/05/30 04:04:40;;;;;;;22.23;13.97;;;14.60;99.90;;;;;;5063224;28;20208;-61
2022/05/30 04:07:06;;;;;;;21.00;12.93;;;14.60;99.90;;;;;;5063506;28;20216;-58
2022/05/30 04:09:31;;;;;;;20.10;13.80;;;14.70;99.90;;;;;;5062378;28;20218;-57
2022/05/30 04:11:57;;;;;;;20.93;13.80;;;14.70;99.90;;;;;;5061629;28;20192;-58
2022/05/30 04:14:23;;;;;;;18.13;12.73;;;14.70;99.90;;;;;;5063377;28;20549;-57
2022/05/30 04:16:49;;;;;;;17.10;11.67;;;14.80;99.90;;;;;;5060916;28;20216;-54
2022/05/30 04:19:15;;;;;;;18.17;12.70;;;14.80;99.90;;;;;;5062954;28;20511;-55
2022/05/30 04:21:41;;;;;;;20.80;12.83;;;14.80;99.90;;;;;;5062550;28;20183;-59
2022/05/30 04:24:07;;;;;;;25.67;13.00;;;14.80;99.90;;;;;;5062223;28;20225;-55
2022/05/30 04:26:33;;;;;;;20.80;11.23;;;14.80;99.90;;;;;;5062436;28;20178;-56
2022/05/30 04:28:58;;;;;;;17.17;11.17;;;14.90;99.90;;;;;;5061686;28;20751;-55
2022/05/30 04:31:24;;;;;;;18.97;12.70;;;14.90;99.90;;;;;;5062807;28;20668;-60
2022/05/30 04:33:50;;;;;;;18.90;12.33;;;14.90;99.90;;;;;;5061738;28;20195;-58
2022/05/30 04:36:16;;;;;;;20.17;11.50;;;15.00;99.90;;;;;;5062584;28;20191;-58
2022/05/30 04:38:42;;;;;;;16.63;11.43;;;15.10;99.90;;;;;;5060243;28;20278;-58
2022/05/30 04:41:07;;;;;;;21.83;11.00;;;15.10;99.90;;;;;;5062118;28;20282;-54
2022/05/30 04:43:33;;;;;;;18.60;11.33;;;15.30;99.90;;;;;;5062621;28;20260;-59
2022/05/30 04:46:10;;;;;;;22.13;11.20;;;15.50;99.90;;;;;;5062045;28;20212;-52
2022/05/30 04:48:36;;;;;;;23.07;10.87;;;15.70;99.90;;;;;;5061014;28;20205;-63
2022/05/30 04:51:02;;;;;;;13.30;9.07;;;15.80;99.90;;;;;;5060347;28;20194;-65
2022/05/30 04:53:27;;;;;;;18.07;10.07;;;16.00;99.90;;;;;;5061582;28;20189;-59
2022/05/30 04:55:53;;;;;;;21.30;10.20;;;16.10;99.90;;;;;;5061589;28;20190;-60
2022/05/30 04:58:19;;;;;;;11.47;8.40;;;16.30;99.90;;;;;;5061959;28;20190;-57
2022/05/30 05:00:45;;;;;;;10.80;7.53;;;16.30;99.90;;;;;;5060956;28;20194;-59
2022/05/30 05:03:11;;;;;;;16.10;8.43;;;16.40;99.90;;;;;;5059646;28;20292;-59
2022/05/30 05:05:36;;;;;;;18.87;9.47;;;16.60;99.90;;;;;;5058673;28;20284;-59
2022/05/30 05:08:31;;;;;;;19.20;7.30;;;16.90;99.90;;;;;;5058428;28;20195;-59
2022/05/30 05:11:13;;;;;;;11.67;7.73;;;17.00;99.90;;;;;;5059243;28;20197;-59
2022/05/30 05:13:39;;;;;;;16.37;6.70;;;17.10;99.90;;;;;;5060888;28;20189;-62
2022/05/30 05:16:05;;;;;;;20.53;7.00;;;17.20;99.90;;;;;;5060053;28;20196;-59
2022/05/30 05:18:31;;;;;;;26.43;7.90;;;17.20;99.90;;;;;;5061097;28;20189;-59
2022/05/30 05:20:57;;;;;;;21.87;6.77;;;17.30;99.90;;;;;;5060672;28;20270;-59
2022/05/30 05:23:22;;;;;;;15.07;6.57;;;17.20;99.90;;;;;;5061119;28;20233;-62
2022/05/30 05:25:48;;;;;;;14.23;7.23;;;17.30;99.90;;;;;;5061252;28;20210;-60
2022/05/30 05:28:14;;;;;;;11.40;5.90;;;17.40;99.90;;;;;;5058628;28;20190;-60
2022/05/30 05:30:42;;;;;;;17.13;5.80;;;17.50;99.90;;;;;;5061541;28;20213;-60
2022/05/30 05:33:10;;;;;;;15.87;5.50;;;17.60;99.90;;;;;;5060980;28;20201;-58
2022/05/30 05:35:41;;;;;;;11.67;5.93;;;17.70;99.90;;;;;;5059950;28;20277;-61
2022/05/30 05:38:07;;;;;;;15.03;6.40;;;17.80;99.90;;;;;;5060734;28;20261;-62
2022/05/30 05:40:37;;;;;;;17.40;5.63;;;17.90;99.90;;;;;;5061036;28;20239;-59
2022/05/30 05:43:02;;;;;;;32.87;12.23;;;17.80;99.90;;;;;;5060143;28;20608;-61
2022/05/30 05:45:29;;;;;;;12.80;5.83;;;17.90;99.90;;;;;;5060727;28;20217;-60
2022/05/30 05:47:55;;;;;;;16.67;5.40;;;17.90;99.90;;;;;;5057540;28;20189;-61
2022/05/30 05:50:20;;;;;;;21.80;6.10;;;18.10;99.90;;;;;;5060309;28;20562;-60
2022/05/30 05:52:46;;;;;;;20.10;5.40;;;18.10;99.90;;;;;;5059507;28;20215;-60
2022/05/30 05:55:12;;;;;;;12.63;4.83;;;18.20;99.90;;;;;;5060230;28;20272;-60
2022/05/30 05:57:37;;;;;;;15.73;5.60;;;18.20;99.90;;;;;;5059224;28;20252;-59
2022/05/30 06:00:04;;;;;;;15.43;5.20;;;18.30;99.90;;;;;;5059572;28;20201;-62
2022/05/30 06:02:32;;;;;;;12.40;5.00;;;18.50;99.90;;;;;;5058132;28;20201;-61
2022/05/30 06:04:58;;;;;;;12.43;6.17;;;18.50;99.90;;;;;;5058664;28;20202;-59
2022/05/30 06:07:24;;;;;;;20.10;5.47;;;18.60;99.90;;;;;;5058749;28;20530;-62
2022/05/30 06:09:49;;;;;;;16.27;5.75;;;18.70;99.90;;;;;;5059227;28;20216;-60
2022/05/30 06:12:15;;;;;;;8.68;4.47;;;18.80;99.90;;;;;;5058551;28;20198;-59
2022/05/30 06:14:41;;;;;;;20.27;5.50;;;19.10;99.90;;;;;;5060737;28;20637;-60
2022/05/30 06:17:07;;;;;;;16.38;3.97;;;19.10;99.90;;;;;;5059362;28;20185;-60
2022/05/30 06:19:32;;;;;;;13.93;4.20;;;19.00;99.90;;;;;;5059873;28;20201;-58
2022/05/30 06:21:58;;;;;;;17.23;4.60;;;19.20;99.90;;;;;;5059645;28;20186;-59
2022/05/30 06:24:24;;;;;;;29.05;5.32;;;19.30;99.90;;;;;;5060049;28;20315;-58
2022/05/30 06:26:50;;;;;;;16.25;4.43;;;19.30;99.90;;;;;;5059181;28;20202;-60
2022/05/30 06:29:16;;;;;;;21.45;4.18;;;19.50;99.90;;;;;;5058578;28;20222;-60
2022/05/30 06:31:42;;;;;;;16.58;4.07;;;19.50;99.90;;;;;;5057752;28;20293;-60
2022/05/30 06:34:08;;;;;;;14.85;3.63;;;19.60;99.90;;;;;;5058775;28;20200;-61
2022/05/30 06:36:35;;;;;;;37.88;5.97;;;19.60;99.90;;;;;;5059331;28;20194;-60
2022/05/30 06:39:01;;;;;;;13.73;3.97;;;19.60;99.90;;;;;;5059677;28;20608;-59
2022/05/30 06:41:29;;;;;;;40.53;5.47;;;19.50;99.90;;;;;;5057246;28;20729;-60
2022/05/30 06:43:57;;;;;;;21.25;4.20;;;19.50;99.90;;;;;;5059212;28;20212;-60
2022/05/30 06:46:24;;;;;;;15.73;3.88;;;19.60;99.90;;;;;;5059492;28;20193;-61
2022/05/30 06:48:56;;;;;;;18.92;3.72;;;19.50;99.90;;;;;;5062940;28;20220;-59
2022/05/30 06:51:23;;;;;;;13.73;4.38;;;19.60;99.90;;;;;;5062639;28;20217;-61
2022/05/30 06:53:49;;;;;;;18.13;6.78;;;19.70;99.90;;;;;;5062554;28;20188;-59
2022/05/30 06:56:19;;;;;;;17.25;3.63;;;19.70;99.90;;;;;;5063556;28;20190;-59
2022/05/30 06:58:47;;;;;;;15.35;3.13;;;19.80;99.90;;;;;;5063453;28;20185;-61
2022/05/30 07:01:14;;;;;;;14.70;3.22;;;19.80;99.90;;;;;;5063087;28;20234;-60
2022/05/30 07:03:41;;;;;;;8.85;4.65;;;20.00;99.90;;;;;;5062686;28;20190;-60
2022/05/30 07:06:11;;;;;;;36.05;3.72;;;20.10;99.90;;;;;;5060851;28;20197;-60
2022/05/30 07:08:38;;;;;;;12.70;2.63;;;20.20;99.90;;;;;;5063663;28;20204;-58
2022/05/30 07:11:06;;;;;;;8.00;1.85;;;20.40;99.90;;;;;;5062233;28;20189;-60
2022/05/30 07:13:32;;;;;;;9.93;2.65;;;20.60;99.90;;;;;;5061750;28;20185;-61
2022/05/30 07:15:59;;;;;;;8.95;2.95;;;20.60;99.90;;;;;;5061550;28;20263;-61
2022/05/30 07:18:25;;;;;;;10.85;2.58;;;20.50;99.90;;;;;;5062725;28;20240;-59
2022/05/30 07:20:59;;;;;;;7.80;2.72;;;20.50;99.90;;;;;;5062932;28;20711;-59
2022/05/30 07:23:25;;;;;;;26.30;3.78;;;20.40;99.90;;;;;;5062638;28;20257;-59
2022/05/30 07:25:57;;;;;;;27.67;4.32;;;20.60;99.90;;;;;;5061768;28;20285;-60
2022/05/30 07:28:25;;;;;;;16.52;3.70;;;20.90;99.90;;;;;;5063062;28;20699;-60
2022/05/30 07:30:51;;;;;;;17.50;3.38;;;21.30;99.90;;;;;;5062486;28;20286;-60
2022/05/30 07:33:17;;;;;;;18.85;2.85;;;21.70;99.90;;;;;;5062557;28;20194;-64
2022/05/30 07:35:44;;;;;;;15.15;2.58;;;22.20;99.90;;;;;;5060847;28;20208;-62
2022/05/30 07:38:09;;;;;;;18.02;2.78;;;22.50;99.90;;;;;;5062398;28;20186;-61
2022/05/30 07:40:35;;;;;;;5.13;1.73;;;22.60;99.90;;;;;;5061771;28;20192;-60
2022/05/30 07:43:01;;;;;;;6.50;2.00;;;22.40;99.90;;;;;;5061354;28;20290;-59
2022/05/30 07:45:27;;;;;;;19.60;3.40;;;22.30;99.90;;;;;;5062818;28;20223;-63
2022/05/30 07:47:53;;;;;;;18.45;3.03;;;22.40;99.90;;;;;;5060458;28;20586;-63
2022/05/30 07:50:19;;;;;;;4.95;1.90;;;22.50;99.90;;;;;;5062580;28;20275;-62
2022/05/30 07:52:45;;;;;;;11.77;4.10;;;22.40;99.90;;;;;;5063042;28;20190;-61
2022/05/30 07:55:11;;;;;;;11.27;2.70;;;22.30;99.90;;;;;;5060955;28;20185;-61
2022/05/30 07:57:52;;;;;;;11.82;2.58;;;22.40;99.90;;;;;;5062612;28;20227;-60
2022/05/30 08:00:20;;;;;;;11.27;2.45;;;22.60;99.90;;;;;;5061849;28;20304;-59
2022/05/30 08:02:46;;;;;;;10.98;2.90;;;22.60;99.90;;;;;;5062392;28;20199;-61
2022/05/30 08:05:13;;;;;;;25.33;4.00;;;22.50;99.90;;;;;;5062365;28;20547;-61
2022/05/30 08:07:39;;;;;;;23.10;3.92;;;22.40;99.90;;;;;;5062246;28;20190;-60
2022/05/30 08:10:06;;;;;;;11.68;3.50;;;22.60;99.90;;;;;;5062064;28;20306;-60
2022/05/30 08:12:32;;;;;;;7.63;3.50;;;22.60;99.90;;;;;;5061816;28;20288;-60
2022/05/30 08:14:58;;;;;;;14.15;3.70;;;23.00;99.90;;;;;;5062286;28;20793;-59
2022/05/30 08:17:24;;;;;;;9.43;3.00;;;23.30;99.90;;;;;;5062410;28;20304;-60
2022/05/30 08:19:50;;;;;;;11.80;2.90;;;23.20;99.90;;;;;;5062421;28;20684;-63
2022/05/30 08:22:16;;;;;;;10.02;2.63;;;23.20;99.90;;;;;;5061468;28;20196;-60
2022/05/30 08:24:47;;;;;;;8.23;3.47;;;23.30;99.90;;;;;;5061850;28;20503;-62
2022/05/30 08:27:14;;;;;;;12.32;3.25;;;23.40;99.90;;;;;;5060634;28;20252;-63
2022/05/30 08:29:42;;;;;;;16.92;3.78;;;23.30;99.90;;;;;;5062194;28;20296;-62
2022/05/30 08:32:08;;;;;;;8.25;3.35;;;23.60;99.90;;;;;;5061801;28;20213;-61
2022/05/30 08:34:36;;;;;;;10.57;3.15;;;23.50;99.90;;;;;;5061593;28;20619;-60
2022/05/30 08:37:03;;;;;;;16.00;3.28;;;23.50;99.90;;;;;;5062010;28;20190;-60
2022/05/30 08:42:13;;;;;;;20.50;5.57;;;23.60;99.90;;;;;;5061101;28;20268;-55
2022/05/30 08:44:40;;;;;;;14.77;2.95;;;23.60;99.90;;;;;;5061152;28;20285;-58
2022/05/30 08:47:28;;;;;;;5.25;2.40;;;23.70;99.90;;;;;;5060794;28;20190;-63
2022/05/30 08:50:02;;;;;;;10.27;2.83;;;23.80;99.90;;;;;;5060090;28;20742;-64
2022/05/30 08:52:40;;;;;;;18.63;3.42;;;23.80;99.90;;;;;;5061682;28;20254;-59
2022/05/30 08:55:19;;;;;;;11.00;4.38;;;23.70;99.90;;;;;;5058828;28;20223;-60
2022/05/30 08:58:10;;;;;;;10.73;3.13;;;23.80;99.90;;;;;;5058880;28;20194;-65
2022/05/30 09:00:50;;;;;;;15.23;2.78;;;23.70;99.90;;;;;;5060634;28;20268;-62
2022/05/30 09:03:37;;;;;;;8.38;1.98;;;23.60;99.90;;;;;;5060128;28;20649;-63
2022/05/30 09:06:25;;;;;;;7.95;2.40;;;23.20;99.90;;;;;;5060174;28;20339;-63
2022/05/30 09:09:01;;;;;;;17.98;4.50;;;23.00;99.90;;;;;;5059600;28;20185;-64
2022/05/30 09:11:55;;;;;;;7.50;2.38;;;22.80;99.90;;;;;;5059265;28;20576;-63
2022/05/30 09:14:32;;;;;;;23.92;3.63;;;22.60;99.90;;;;;;5060551;28;20260;-64
2022/05/30 09:17:01;;;;;;;6.50;2.13;;;22.50;99.90;;;;;;5061135;28;20178;-63
2022/05/30 09:19:27;;;;;;;13.30;2.22;;;22.30;99.90;;;;;;5059890;28;20285;-64
2022/05/30 09:22:01;;;;;;;7.82;1.83;;;22.20;99.90;;;;;;5061163;28;20277;-62
2022/05/30 09:24:32;;;;;;;18.60;2.75;;;22.00;99.90;;;;;;5061467;28;20324;-64
2022/05/30 09:27:00;;;;;;;12.73;2.10;;;22.20;99.90;;;;;;5059906;28;20519;-62
2022/05/30 09:29:41;;;;;;;17.33;3.83;;;22.10;99.90;;;;;;5060409;28;20217;-66
2022/05/30 09:32:40;;;;;;;12.95;2.55;;;21.80;99.90;;;;;;5059004;28;20235;-63
2022/05/30 09:35:25;;;;;;;4.28;1.65;;;21.70;99.90;;;;;;5059859;28;20186;-64
2022/05/30 09:38:22;;;;;;;20.85;6.20;;;21.70;99.90;;;;;;5060314;28;20197;-64
2022/05/30 09:40:52;;;;;;;13.40;2.90;;;21.70;99.90;;;;;;5060492;28;20212;-64
2022/05/30 09:43:50;;;;;;;8.65;2.25;;;22.00;99.90;;;;;;5058715;28;20547;-65
2022/05/30 09:46:21;;;;;;;13.15;2.30;;;22.20;99.90;;;;;;5054336;28;20205;-62
2022/05/30 09:49:14;;;;;;;12.02;2.70;;;22.30;99.90;;;;;;5059885;28;20207;-65
2022/05/30 09:52:08;;;;;;;8.20;1.90;;;22.30;99.90;;;;;;5059200;28;20235;-62
2022/05/30 09:54:38;;;;;;;2.53;1.30;;;22.40;99.90;;;;;;5055105;28;20202;-64
2022/05/30 09:57:41;;;;;;;2.70;1.40;;;22.60;99.90;;;;;;5059414;28;20543;-61
2022/05/30 10:00:18;;;;;;;3.40;1.40;;;22.60;99.90;;;;;;5051103;28;20574;-62
2022/05/30 10:02:45;;;;;;;7.95;2.10;;;22.70;99.90;;;;;;5060130;28;20528;-63
2022/05/30 10:05:20;;;;;;;5.97;1.77;;;22.80;99.90;;;;;;5059637;28;20604;-67
2022/05/30 10:07:59;;;;;;;25.10;5.47;;;23.00;99.90;;;;;;5059963;28;20177;-63
2022/05/30 10:10:32;;;;;;;4.75;1.63;;;23.00;99.90;;;;;;5059383;28;20209;-63
2022/05/30 10:13:01;;;;;;;7.25;1.50;;;22.90;99.90;;;;;;5059449;28;20198;-63
2022/05/30 10:15:29;;;;;;;9.55;1.42;;;23.00;99.90;;;;;;5057705;28;20248;-61
2022/05/30 10:17:57;;;;;;;11.48;2.65;;;23.00;99.90;;;;;;5059407;28;20326;-62
2022/05/30 10:20:38;;;;;;;3.42;1.30;;;22.90;99.90;;;;;;5058760;28;20680;-64
2022/05/30 10:28:14;;;;;;;5.38;1.45;;;22.70;99.90;;;;;;5059603;28;20192;-61
2022/05/30 10:29:51;;;;;;;4.88;1.48;;;22.80;99.90;;;;;;5059522;28;20304;-63
2022/05/30 10:32:46;;;;;;;1.90;1.30;;;23.00;99.90;;;;;;5059963;28;20211;-62
2022/05/30 10:35:43;;;;;;;15.68;3.83;;;23.00;99.90;;;;;;5051245;28;20216;-62
2022/05/30 10:38:21;;;;;;;4.68;1.67;;;23.30;99.90;;;;;;5060237;28;20184;-61
2022/05/30 10:40:53;;;;;;;6.93;1.85;;;23.70;99.90;;;;;;5059380;28;20185;-61
2022/05/30 10:43:53;;;;;;;16.15;2.85;;;23.60;99.90;;;;;;5059730;28;20196;-62
2022/05/30 10:46:55;;;;;;;4.32;1.48;;;23.60;99.90;;;;;;5058741;28;20196;-65
2022/05/30 10:49:24;;;;;;;10.60;2.30;;;23.60;99.90;;;;;;5058992;28;20200;-63
2022/05/30 10:52:29;;;;;;;9.50;1.83;;;23.70;99.90;;;;;;5059653;28;20220;-61
2022/05/30 10:55:12;;;;;;;13.63;2.83;;;23.90;99.90;;;;;;5052377;28;20196;-63
2022/05/30 10:58:00;;;;;;;7.28;2.22;;;24.10;99.90;;;;;;5054248;28;20603;-62
2022/05/30 11:00:36;;;;;;;10.23;1.95;;;24.30;99.90;;;;;;5055254;28;20197;-62
2022/05/30 11:03:30;;;;;;;6.82;2.40;;;24.60;99.90;;;;;;5054847;28;20296;-64
2022/05/30 11:06:10;;;;;;;8.40;2.17;;;24.90;99.90;;;;;;5056640;28;20205;-61
2022/05/30 11:08:41;;;;;;;4.05;1.73;;;25.10;98.70;;;;;;5058802;28;20250;-62
2022/05/30 11:11:12;;;;;;;19.48;3.05;;;25.20;98.60;;;;;;5058830;28;20247;-62
2022/05/30 11:14:08;;;;;;;8.18;2.00;;;25.40;98.80;;;;;;5058852;28;20285;-62
2022/05/30 11:16:52;;;;;;;8.05;1.95;;;25.50;98.10;;;;;;5058253;28;20173;-61
2022/05/30 11:19:59;;;;;;;12.43;2.38;;;25.60;97.50;;;;;;5058110;28;20180;-62
2022/05/30 11:22:46;;;;;;;18.17;3.05;;;26.20;97.00;;;;;;5058815;28;20299;-62
2022/05/30 11:25:14;;;;;;;5.68;1.70;;;27.90;93.10;;;;;;5059171;28;20202;-62
2022/05/30 11:28:02;;;;;;;7.22;1.90;;;29.50;87.20;;;;;;5057807;28;20211;-62
2022/05/30 11:30:53;;;;;;;7.30;1.77;;;30.90;78.50;;;;;;5059105;28;20215;-60
2022/05/30 11:33:53;;;;;;;6.38;1.45;;;32.00;71.00;;;;;;5059073;28;20604;-61
2022/05/30 11:36:53;;;;;;;7.78;1.67;;;32.90;66.40;;;;;;5062509;28;20186;-63
2022/05/30 11:39:47;;;;;;;12.02;2.22;;;33.40;66.30;;;;;;5061422;28;20186;-62
2022/05/30 11:42:34;;;;;;;14.45;2.53;;;34.50;61.20;;;;;;5061966;28;20291;-62
2022/05/30 11:45:35;;;;;;;11.82;1.83;;;35.40;59.80;;;;;;5062817;28;20205;-61
2022/05/30 11:48:25;;;;;;;9.07;1.70;;;35.20;56.60;;;;;;5053076;28;20236;-60
2022/05/30 11:51:08;;;;;;;4.70;1.60;;;35.00;55.50;;;;;;5062957;28;20247;-62
2022/05/30 11:54:14;;;;;;;5.70;1.23;;;35.00;56.00;;;;;;5060529;28;20309;-62
2022/05/30 11:56:40;;;;;;;11.48;1.30;;;35.10;54.20;;;;;;5062244;28;20208;-63
2022/05/30 11:59:28;;;;;;;3.78;1.30;;;36.70;51.40;;;;;;5062151;28;20189;-63
2022/05/30 12:01:56;;;;;;;22.23;5.68;;;36.30;51.10;;;;;;5055296;28;20272;-63
2022/05/30 12:04:28;;;;;;;14.05;3.47;;;36.70;51.50;;;;;;5062400;28;20242;-60
2022/05/30 12:07:16;;;;;;;5.88;2.25;;;37.40;51.10;;;;;;5061100;28;20515;-60
2022/05/30 12:10:07;;;;;;;3.83;1.92;;;37.80;49.30;;;;;;5062680;28;20671;-61
2022/05/30 12:12:58;;;;;;;13.30;2.80;;;38.00;48.60;;;;;;5063101;28;20203;-61
2022/05/30 12:15:54;;;;;;;4.28;1.52;;;38.40;47.50;;;;;;5061511;28;20204;-63
2022/05/30 12:24:14;;;;;;;13.95;2.60;;;39.60;44.80;;;;;;5060911;28;20238;-62
2022/05/30 12:26:56;;;;;;;6.45;2.00;;;40.10;43.90;;;;;;5062586;28;20177;-61
2022/05/30 12:29:37;;;;;;;9.52;2.40;;;40.20;43.50;;;;;;5062269;28;20248;-64
2022/05/30 12:32:21;;;;;;;10.68;2.70;;;40.70;42.90;;;;;;5062288;28;20544;-66
2022/05/30 12:35:11;;;;;;;11.32;2.20;;;40.90;41.00;;;;;;5061599;28;20228;-62
2022/05/30 12:38:06;;;;;;;12.13;2.83;;;41.30;41.00;;;;;;5061262;28;20177;-61
2022/05/30 12:40:39;;;;;;;8.25;3.58;;;41.90;40.60;;;;;;5058464;28;20205;-60
2022/05/30 12:43:32;;;;;;;16.08;2.72;;;41.30;40.50;;;;;;5062101;28;20184;-60
2022/05/30 12:45:58;;;;;;;12.60;1.98;;;41.50;40.50;;;;;;5061901;28;20169;-60
2022/05/30 12:48:33;;;;;;;7.68;1.38;;;42.00;40.20;;;;;;5061836;28;20211;-63
2022/05/30 12:51:19;;;;;;;11.80;1.98;;;41.50;40.20;;;;;;5059677;28;20204;-61
2022/05/30 12:54:00;;;;;;;5.63;1.50;;;41.50;39.00;;;;;;5061511;28;20194;-62
2022/05/30 12:56:43;;;;;;;11.05;1.90;;;40.20;40.80;;;;;;5061884;28;20212;-61
2022/05/30 12:59:24;;;;;;;4.18;1.23;;;39.90;41.30;;;;;;5061089;28;20185;-63
2022/05/30 13:01:57;;;;;;;11.38;2.25;;;40.90;40.80;;;;;;5060668;28;20173;-61
2022/05/30 13:04:42;;;;;;;8.63;1.63;;;41.90;41.00;;;;;;5061120;28;20200;-62
2022/05/30 13:07:11;;;;;;;3.08;1.35;;;43.10;39.20;;;;;;5061505;28;20188;-61
2022/05/30 13:09:40;;;;;;;10.35;2.40;;;42.30;38.40;;;;;;5061335;28;20209;-61
2022/05/30 13:12:14;;;;;;;16.55;4.32;;;41.70;40.50;;;;;;5060238;28;20224;-62
2022/05/30 13:14:49;;;;;;;4.80;1.20;;;42.70;39.50;;;;;;5061100;28;20644;-62
2022/05/30 13:17:23;;;;;;;10.02;2.40;;;43.40;37.10;;;;;;5059963;28;20645;-67
2022/05/30 13:19:49;;;;;;;4.38;1.02;;;43.90;37.00;;;;;;5061306;28;20192;-61
2022/05/30 13:22:27;;;;;;;6.40;1.90;;;43.00;37.80;;;;;;5060193;28;20724;-61
2022/05/30 13:24:53;;;;;;;17.55;3.20;;;42.70;37.20;;;;;;5061249;28;20619;-61